Time;durP1;ratioP1;P1;durP2;ratioP2;P2;SDS_P1;SDS_P2;PMS_P1;PMS_P2;Temp;Humidity;BMP_temperature;BMP_pressure;BME280_temperature;BME280_humidity;BME280_pressure;Samples;Min_cycle;Max_cycle;Signal;HPM_P1;HPM_P2
2021/08/31 00:01:49;;;;;;;97.70;44.28;;;;;;;18.07;85.30;99536.66;5133734;27;20545;-80
2021/08/31 00:04:14;;;;;;;104.60;47.15;;;;;;;18.02;85.62;99541.66;5114676;27;20502;-77
2021/08/31 00:06:40;;;;;;;99.88;46.42;;;;;;;18.01;85.62;99543.50;5132698;27;20047;-74
2021/08/31 00:09:06;;;;;;;99.15;45.15;;;;;;;18.08;85.60;99555.22;5133215;27;20035;-76
2021/08/31 00:11:32;;;;;;;98.35;43.60;;;;;;;18.09;85.64;99556.03;5132725;27;20038;-77
2021/08/31 00:14:00;;;;;;;87.22;41.67;;;;;;;18.15;85.38;99549.16;5132670;27;20488;-76
2021/08/31 00:16:25;;;;;;;;;;;;;;;18.17;85.28;99556.03;5133976;27;20468;-77
2021/08/31 00:18:52;;;;;;;74.18;37.35;;;;;;;18.21;nan;99560.03;5132904;27;20014;-77
2021/08/31 00:21:17;;;;;;;83.82;40.25;;;;;;;18.22;84.85;99553.66;5132880;27;20038;-75
2021/08/31 00:23:43;;;;;;;82.43;38.42;;;;;;;18.26;84.68;99568.38;5133142;27;20046;-75
2021/08/31 00:26:09;;;;;;;76.72;38.00;;;;;;;18.30;84.56;99551.97;5132973;27;20078;-76
2021/08/31 00:28:35;;;;;;;74.90;37.42;;;;;;;18.32;84.57;99549.94;5131529;27;20089;-78
2021/08/31 00:31:00;;;;;;;81.10;39.58;;;;;;;18.21;84.21;99543.97;5131363;27;20083;-78
2021/08/31 00:33:26;;;;;;;79.60;39.85;;;;;;;18.18;84.70;99538.09;5133464;27;20103;-77
2021/08/31 00:35:52;;;;;;;82.50;38.08;;;;;;;18.21;84.52;99538.59;5132256;27;20096;-76
2021/08/31 00:38:36;;;;;;;79.60;39.13;;;;;;;18.17;84.21;99539.97;5128283;27;20046;-75
2021/08/31 00:41:03;;;;;;;86.25;40.63;;;;;;;18.05;84.77;99536.78;5133009;27;20027;-75
2021/08/31 00:43:28;;;;;;;83.85;39.53;;;;;;;18.04;84.75;99536.97;5131876;27;20104;-76
2021/08/31 00:45:55;;;;;;;82.15;40.45;;;;;;;18.04;84.68;99536.97;5131218;27;20406;-75
2021/08/31 00:48:22;;;;;;;78.67;38.10;;;;;;;18.03;85.09;99546.00;5132824;27;20047;-76
2021/08/31 00:50:51;;;;;;;79.00;38.17;;;;;;;18.04;84.92;99536.97;5132061;27;20038;-77
2021/08/31 00:53:17;;;;;;;84.82;41.25;;;;;;;18.03;84.94;99541.50;5131902;27;20126;-75
2021/08/31 00:55:45;;;;;;;87.32;43.25;;;;;;;18.00;85.00;99543.69;5132289;27;20047;-77
2021/08/31 00:58:10;;;;;;;;;;;;;;;18.05;85.16;99544.00;5133257;27;20116;-80
2021/08/31 01:00:36;;;;;;;80.65;38.28;;;;;;;18.02;84.82;99547.00;5131356;27;20375;-75
2021/08/31 01:03:03;;;;;;;84.78;41.40;;;;;;;18.02;85.00;99544.31;5132884;27;20564;-78
2021/08/31 01:05:30;;;;;;;82.10;39.33;;;;;;;18.02;84.88;99544.31;5133000;27;20091;-82
2021/08/31 01:07:56;;;;;;;80.07;38.85;;;;;;;17.98;84.71;99548.34;5130959;27;20433;-75
2021/08/31 01:10:22;;;;;;;73.00;36.08;;;;;;;17.98;84.72;99551.03;5132586;27;20061;-77
2021/08/31 01:12:50;;;;;;;76.15;37.80;;;;;;;17.99;84.78;99550.84;5130821;27;20491;-82
2021/08/31 01:15:16;;;;;;;76.35;37.35;;;;;;;17.98;84.64;99548.34;5132028;27;20035;-78
2021/08/31 01:17:42;;;;;;;82.45;38.00;;;;;;;17.95;84.51;99545.00;5113340;27;20502;-78
2021/08/31 01:20:08;;;;;;;81.32;39.15;;;;;;;17.91;84.52;99545.50;5131649;27;20035;-77
2021/08/31 01:22:34;;;;;;;78.72;38.58;;;;;;;17.88;84.56;99544.00;5132631;27;20050;-77
2021/08/31 01:25:06;;;;;;;80.45;38.47;;;;;;;17.89;84.62;99544.81;5131919;27;20039;-74
2021/08/31 01:27:32;;;;;;;77.00;38.85;;;;;;;17.91;84.46;99546.31;5131748;27;20155;-79
2021/08/31 01:29:58;;;;;;;83.93;39.33;;;;;;;17.90;84.33;99551.84;5131174;27;20459;-77
2021/08/31 01:32:26;;;;;;;77.72;38.88;;;;;;;17.93;84.18;99544.31;5132039;27;20499;-74
2021/08/31 01:34:52;;;;;;;77.30;37.95;;;;;;;17.97;84.15;99546.69;5132043;27;20035;-75
2021/08/31 01:37:18;;;;;;;84.22;39.38;;;;;;;17.94;83.91;99551.38;5132287;27;20540;-75
2021/08/31 01:39:43;;;;;;;84.10;40.08;;;;;;;17.92;84.08;99550.69;5131740;27;20047;-77
2021/08/31 01:42:09;;;;;;;80.45;40.42;;;;;;;17.95;83.61;99555.72;5129616;27;20109;-78
2021/08/31 01:44:35;;;;;;;85.85;39.58;;;;;;;17.95;83.64;99549.53;5132426;27;20047;-77
2021/08/31 01:47:01;;;;;;;82.47;40.13;;;;;;;17.91;83.72;99553.53;5132176;27;20047;-77
2021/08/31 01:49:27;;;;;;;82.68;40.05;;;;;;;17.95;83.63;99555.72;5131315;27;20079;-74
2021/08/31 01:51:53;;;;;;;79.07;40.33;;;;;;;17.97;83.49;99546.69;5129371;27;20270;-76
2021/08/31 01:54:18;;;;;;;86.57;42.45;;;;;;;17.95;83.21;99549.53;5132097;27;20093;-76
2021/08/31 01:56:44;;;;;;;80.13;41.15;;;;;;;17.97;83.23;99547.53;5130809;28;20092;-78
2021/08/31 01:59:10;;;;;;;83.20;40.80;;;;;;;17.97;82.80;99546.69;5131702;27;20404;-76
2021/08/31 02:01:38;;;;;;;85.18;42.70;;;;;;;17.89;82.98;99537.63;5122114;27;20067;-76
2021/08/31 02:04:04;;;;;;;85.40;41.05;;;;;;;17.91;83.02;99543.66;5124683;28;20064;-79
2021/08/31 02:06:30;;;;;;;80.40;40.03;;;;;;;17.89;82.94;99545.66;5131363;27;20523;-76
2021/08/31 02:08:57;;;;;;;82.45;41.67;;;;;;;17.86;83.09;99556.72;5130112;28;20567;-77
2021/08/31 02:11:23;;;;;;;77.28;40.47;;;;;;;17.81;83.29;99553.69;5128812;28;20134;-77
2021/08/31 02:13:49;;;;;;;80.95;40.42;;;;;;;17.80;83.36;99554.69;5130719;28;20492;-77
2021/08/31 02:16:14;;;;;;;89.75;41.25;;;;;;;17.75;83.44;99559.72;5131847;28;20039;-77
2021/08/31 02:18:41;;;;;;;86.22;41.55;;;;;;;17.73;83.59;99556.38;5131465;27;20036;-78
2021/08/31 02:21:08;;;;;;;80.47;41.20;;;;;;;17.69;83.54;99558.53;5131979;28;20091;-80
2021/08/31 02:23:34;;;;;;;87.28;40.28;;;;;;;17.75;83.34;99555.19;5132050;27;20774;-78
2021/08/31 02:26:00;;;;;;;76.90;39.45;;;;;;;17.69;83.38;99555.88;5131756;27;20058;-78
2021/08/31 02:28:26;;;;;;;84.30;40.30;;;;;;;17.73;83.43;99556.38;5135484;27;20527;-76
2021/08/31 02:30:52;;;;;;;91.53;44.05;;;;;;;17.76;83.16;99561.41;5135343;27;20189;-77
2021/08/31 02:33:17;;;;;;;78.70;42.05;;;;;;;17.69;83.07;99565.75;5135763;27;20415;-76
2021/08/31 02:35:43;;;;;;;77.43;39.22;;;;;;;17.68;83.08;99564.06;5135394;27;20047;-76
2021/08/31 02:38:09;;;;;;;76.63;38.35;;;;;;;17.71;83.03;99558.41;5135316;27;20043;-75
2021/08/31 02:40:35;;;;;;;84.60;40.25;;;;;;;17.71;83.03;99559.22;5135096;27;20038;-76
2021/08/31 02:43:00;;;;;;;78.28;38.38;;;;;;;17.74;83.03;99558.03;5134194;27;20609;-78
2021/08/31 02:45:26;;;;;;;81.85;40.53;;;;;;;17.73;83.09;99567.06;5135271;27;20050;-76
2021/08/31 02:47:53;;;;;;;83.00;40.60;;;;;;;17.72;82.78;99573.41;5134948;27;20302;-81
2021/08/31 02:50:19;;;;;;;70.25;37.30;;;;;;;17.72;82.60;99584.97;5134402;27;20251;-77
2021/08/31 02:52:45;;;;;;;78.47;39.03;;;;;;;17.70;82.54;99578.13;5135019;27;20042;-75
2021/08/31 02:55:11;;;;;;;81.70;38.75;;;;;;;17.71;82.71;99571.78;5134572;27;20046;-76
2021/08/31 02:57:39;;;;;;;79.25;36.75;;;;;;;17.63;82.64;99562.75;5135196;27;20054;-79
2021/08/31 03:00:08;;;;;;;72.72;36.45;;;;;;;17.58;82.81;99565.09;5134989;27;20039;-79
2021/08/31 03:02:34;;;;;;;75.00;36.40;;;;;;;17.61;82.52;99572.75;5133743;27;20043;-75
2021/08/31 03:04:59;;;;;;;69.20;34.17;;;;;;;17.62;82.77;99579.78;5132855;27;20568;-76
2021/08/31 03:07:25;;;;;;;66.50;35.10;;;;;;;17.63;82.40;99573.44;5134139;27;20035;-77
2021/08/31 03:09:51;;;;;;;70.50;34.85;;;;;;;17.60;82.21;99568.41;5131900;27;20041;-78
2021/08/31 03:12:17;;;;;;;69.30;36.22;;;;;;;17.68;82.15;99569.41;5132210;27;20039;-79
2021/08/31 03:14:43;;;;;;;64.00;33.70;;;;;;;17.72;82.11;99579.63;5133246;27;20438;-77
2021/08/31 03:17:09;;;;;;;68.13;35.60;;;;;;;17.83;81.46;99582.94;5132971;27;20084;-79
2021/08/31 03:19:36;;;;;;;65.82;33.70;;;;;;;17.79;81.56;99579.78;5134647;27;20039;-77
2021/08/31 03:22:04;;;;;;;74.75;37.13;;;;;;;17.78;81.69;99592.34;5133010;27;20142;-79
2021/08/31 03:24:30;;;;;;;68.70;35.25;;;;;;;17.82;81.56;99590.16;5134788;27;20047;-77
2021/08/31 03:26:56;;;;;;;73.82;34.53;;;;;;;17.85;81.65;99580.97;5134329;27;20086;-75
2021/08/31 03:29:22;;;;;;;74.20;35.13;;;;;;;17.83;81.18;99578.47;5134539;27;20074;-77
2021/08/31 03:31:48;;;;;;;76.15;34.50;;;;;;;17.73;81.28;99585.78;5134070;27;20031;-77
2021/08/31 03:34:14;;;;;;;68.65;34.90;;;;;;;17.73;81.38;99583.97;5134127;27;20472;-74
2021/08/31 03:36:40;;;;;;;75.55;33.58;;;;;;;17.75;81.33;99581.94;5134535;27;20096;-75
2021/08/31 03:39:06;;;;;;;68.55;33.15;;;;;;;17.70;81.14;99575.44;5133053;27;20483;-75
2021/08/31 03:41:33;;;;;;;70.78;33.55;;;;;;;17.72;81.03;99570.75;5133119;27;20042;-77
2021/08/31 03:43:59;;;;;;;65.15;32.97;;;;;;;17.71;80.98;99571.78;5134312;27;20038;-76
2021/08/31 03:46:25;;;;;;;77.32;36.97;;;;;;;17.73;80.95;99569.75;5133170;27;20138;-77
2021/08/31 03:48:51;;;;;;;75.50;36.78;;;;;;;17.71;81.07;99559.22;5132618;27;20067;-78
2021/08/31 03:51:17;;;;;;;213.38;116.82;;;;;;;17.65;80.93;99553.72;5133460;27;20035;-82
2021/08/31 03:53:43;;;;;;;75.05;34.72;;;;;;;17.70;81.08;99562.91;5094510;28;20073;-80
2021/08/31 03:56:09;;;;;;;71.18;34.58;;;;;;;17.80;80.77;99576.09;5130081;27;20130;-79
2021/08/31 03:58:35;;;;;;;66.57;33.30;;;;;;;17.91;80.12;99572.25;5132718;27;20039;-77
2021/08/31 04:01:01;;;;;;;65.97;33.45;;;;;;;17.88;79.60;99580.59;5133669;27;20081;-79
2021/08/31 04:03:26;;;;;;;64.50;34.67;;;;;;;17.84;79.71;99566.72;5134037;27;20068;-79
2021/08/31 04:05:52;;;;;;;66.53;34.03;;;;;;;17.87;79.39;99555.72;5133850;27;20072;-79
2021/08/31 04:08:18;;;;;;;62.67;31.48;;;;;;;17.81;79.61;99552.84;5133766;27;20059;-75
2021/08/31 04:10:44;;;;;;;70.13;32.13;;;;;;;17.81;79.66;99551.03;5133479;27;20082;-77
2021/08/31 04:13:12;;;;;;;58.88;31.95;;;;;;;17.84;79.17;99541.81;5132083;27;20043;-76
2021/08/31 04:15:37;;;;;;;67.68;32.40;;;;;;;17.75;79.61;99546.34;5134659;27;20035;-79
2021/08/31 04:18:04;;;;;;;74.18;38.28;;;;;;;17.72;79.74;99538.66;5133146;27;20055;-78
2021/08/31 04:20:29;;;;;;;62.67;32.70;;;;;;;17.75;79.42;99538.31;5133259;27;20031;-77
2021/08/31 04:22:55;;;;;;;63.55;31.90;;;;;;;17.82;79.17;99550.03;5132505;27;20054;-79
2021/08/31 04:25:22;;;;;;;65.53;32.05;;;;;;;17.89;78.83;99544.81;5132809;27;20729;-80
2021/08/31 04:27:48;;;;;;;59.28;30.67;;;;;;;17.89;78.49;99545.66;5131581;27;20071;-78
2021/08/31 04:30:14;;;;;;;60.63;30.77;;;;;;;17.86;78.61;99540.66;5132862;27;20476;-76
2021/08/31 04:32:40;;;;;;;59.92;30.35;;;;;;;17.77;78.99;99547.03;5133271;27;20511;-77
2021/08/31 04:35:06;;;;;;;61.38;31.17;;;;;;;17.71;79.20;99528.97;5133312;27;20075;-75
2021/08/31 04:37:32;;;;;;;64.15;32.38;;;;;;;17.74;79.11;99531.28;5133009;27;20047;-75
2021/08/31 04:39:59;;;;;;;60.90;31.02;;;;;;;17.63;79.25;99524.44;5132475;27;20130;-76
2021/08/31 04:42:25;;;;;;;62.75;32.65;;;;;;;17.64;79.54;99520.78;5130834;27;20039;-75
2021/08/31 04:44:51;;;;;;;65.72;33.53;;;;;;;17.74;79.34;99531.28;5133193;27;20345;-76
2021/08/31 04:47:17;;;;;;;70.35;36.03;;;;;;;17.70;79.51;99517.41;5131938;27;20712;-75
2021/08/31 04:49:44;;;;;;;74.05;35.55;;;;;;;17.66;79.65;99533.97;5132782;27;20590;-77
2021/08/31 04:52:10;;;;;;;72.32;36.97;;;;;;;17.56;79.70;99526.97;5133075;27;20147;-78
2021/08/31 04:54:36;;;;;;;76.07;37.58;;;;;;;17.56;79.91;99518.94;5133170;27;20391;-81
2021/08/31 04:57:02;;;;;;;73.97;37.08;;;;;;;17.59;79.73;99521.25;5132775;27;20134;-76
2021/08/31 04:59:28;;;;;;;72.70;37.67;;;;;;;17.62;79.92;99523.63;5133192;27;20131;-73
2021/08/31 05:01:53;;;;;;;82.35;36.30;;;;;;;17.63;80.13;99530.66;5132623;27;20104;-76
2021/08/31 05:04:19;;;;;;;70.85;37.88;;;;;;;17.72;79.93;99531.47;5132846;27;20035;-75
2021/08/31 05:06:45;;;;;;;89.38;38.60;;;;;;;17.79;79.64;99531.63;5132656;27;20392;-78
2021/08/31 05:09:11;;;;;;;73.68;37.25;;;;;;;17.83;79.59;99519.59;5132533;27;20039;-76
2021/08/31 05:11:37;;;;;;;68.45;36.88;;;;;;;17.82;79.22;99528.63;5132049;27;20046;-76
2021/08/31 05:14:03;;;;;;;72.53;35.85;;;;;;;17.77;79.08;99525.63;5113681;27;20035;-82
2021/08/31 05:16:29;;;;;;;72.93;35.10;;;;;;;17.77;78.81;99526.44;5132280;27;20070;-78
2021/08/31 05:18:55;;;;;;;67.88;36.45;;;;;;;17.66;78.97;99525.94;5131331;27;20095;-78
2021/08/31 05:21:21;;;;;;;66.35;34.50;;;;;;;17.63;79.21;99525.28;5133148;27;20095;-79
2021/08/31 05:23:47;;;;;;;70.15;37.10;;;;;;;17.73;79.09;99529.63;5114250;27;20039;-82
2021/08/31 05:26:13;;;;;;;72.32;37.20;;;;;;;17.77;78.60;99528.31;5113743;27;20039;-79
2021/08/31 05:28:38;;;;;;;76.93;37.92;;;;;;;17.73;78.78;99538.50;5132238;27;20035;-79
2021/08/31 05:31:04;;;;;;;75.38;37.50;;;;;;;17.79;78.62;99523.59;5131958;27;20047;-77
2021/08/31 05:33:30;;;;;;;81.78;41.08;;;;;;;17.84;78.66;99518.56;5132004;27;20039;-78
2021/08/31 05:35:56;;;;;;;83.55;40.92;;;;;;;17.88;78.49;99511.91;5132457;27;20043;-76
2021/08/31 05:38:22;;;;;;;84.22;40.75;;;;;;;17.89;78.35;99513.53;5132227;27;20100;-80
2021/08/31 05:40:48;;;;;;;74.88;37.65;;;;;;;18.03;78.18;99514.75;5131630;27;20039;-76
2021/08/31 05:43:14;;;;;;;69.53;35.92;;;;;;;18.22;77.04;99524.22;5130881;27;20046;-77
2021/08/31 05:45:40;;;;;;;73.15;36.83;;;;;;;18.20;76.73;99509.34;5133331;27;20054;-76
2021/08/31 05:48:06;;;;;;;72.05;37.13;;;;;;;18.17;76.69;99513.19;5130955;27;20117;-77
2021/08/31 05:50:32;;;;;;;67.80;34.88;;;;;;;18.25;76.08;99513.16;5132569;27;20392;-75
2021/08/31 05:52:57;;;;;;;71.20;35.42;;;;;;;18.13;76.46;99506.53;5130646;27;20604;-79
2021/08/31 05:55:23;;;;;;;65.63;35.42;;;;;;;18.36;76.11;99506.59;5132200;27;20046;-77
2021/08/31 05:57:49;;;;;;;64.47;34.00;;;;;;;18.37;75.62;99504.78;5132171;27;20040;-83
2021/08/31 06:00:15;;;;;;;70.40;35.42;;;;;;;18.38;75.93;99511.78;5130963;27;20437;-77
2021/08/31 06:02:43;;;;;;;57.38;32.33;;;;;;;18.42;75.31;99505.91;5131800;27;20653;-82
2021/08/31 06:05:11;;;;;;;65.85;32.83;;;;;;;18.38;75.37;99503.72;5131978;28;20373;-80
2021/08/31 06:07:39;;;;;;;62.03;32.22;;;;;;;18.53;75.25;99501.16;5132297;27;20031;-81
2021/08/31 06:10:05;;;;;;;60.70;32.03;;;;;;;18.92;73.79;99514.56;5132343;28;20078;-79
2021/08/31 06:12:31;;;;;;;64.28;31.67;;;;;;;19.17;72.57;99508.22;5144419;27;20043;-79
2021/08/31 06:14:57;;;;;;;62.75;33.17;;;;;;;19.09;72.67;99511.78;5111643;28;20454;-87
2021/08/31 06:17:23;;;;;;;58.83;32.85;;;;;;;19.14;72.57;99504.03;5094404;28;20050;-80
2021/08/31 06:19:50;;;;;;;60.30;30.88;;;;;;;19.29;71.86;99503.25;5112883;28;20097;-80
2021/08/31 06:22:16;;;;;;;59.25;32.20;;;;;;;19.40;71.46;99495.63;5111930;28;20040;-80
2021/08/31 06:24:42;;;;;;;61.55;31.40;;;;;;;19.84;70.26;99502.13;5111705;28;20043;-83
2021/08/31 06:27:08;;;;;;;68.95;33.38;;;;;;;19.73;69.65;99503.38;5110869;28;20040;-84
2021/08/31 06:29:34;;;;;;;65.05;33.67;;;;;;;19.71;70.19;99504.56;5110872;28;20047;-81
2021/08/31 06:32:00;;;;;;;65.20;33.13;;;;;;;19.79;70.32;99499.13;5093414;28;20051;-76
2021/08/31 06:34:26;;;;;;;60.10;32.10;;;;;;;19.86;69.89;99496.56;5111944;28;20035;-78
2021/08/31 06:36:51;;;;;;;56.35;31.40;;;;;;;20.09;68.60;99501.03;5110370;28;20036;-77
2021/08/31 06:39:18;;;;;;;61.10;32.72;;;;;;;20.55;67.47;99498.16;5109782;28;20556;-83
2021/08/31 06:41:44;;;;;;;61.13;30.73;;;;;;;20.85;66.63;99498.13;5126332;28;20047;-83
2021/08/31 06:44:09;;;;;;;55.00;29.40;;;;;;;20.67;65.83;99495.78;5132870;27;20065;-79
2021/08/31 06:46:35;;;;;;;49.95;30.42;;;;;;;20.89;65.81;99499.38;5131762;28;20043;-78
2021/08/31 06:49:01;;;;;;;85.80;48.75;;;;;;;21.04;65.00;99499.34;5132662;28;20047;-76
2021/08/31 06:51:27;;;;;;;64.13;33.13;;;;;;;21.27;64.77;99501.00;5132385;27;20093;-79
2021/08/31 06:53:53;;;;;;;66.63;34.30;;;;;;;21.24;64.19;99504.09;5114175;28;20039;-78
2021/08/31 06:56:20;;;;;;;58.00;33.30;;;;;;;21.37;64.33;99501.53;5130978;28;20038;-80
2021/08/31 06:58:46;;;;;;;;;;;;;;;22.28;61.65;99489.97;5133381;27;20043;-81
2021/08/31 07:01:12;;;;;;;58.83;30.77;;;;;;;22.73;59.76;99497.66;5114423;28;20010;-79
2021/08/31 07:03:38;;;;;;;63.00;29.52;;;;;;;22.33;59.54;99502.84;5132682;28;20043;-82
2021/08/31 07:06:04;;;;;;;51.60;29.00;;;;;;;22.81;58.22;99502.03;5131720;28;20082;-77
2021/08/31 07:08:30;;;;;;;51.38;27.23;;;;;;;22.74;58.15;99491.22;5132334;28;20050;-80
2021/08/31 07:10:56;;;;;;;56.45;29.05;;;;;;;22.74;57.97;99491.22;5129732;28;20084;-80
2021/08/31 07:13:23;;;;;;;53.95;28.58;;;;;;;22.88;57.90;99483.16;5133366;27;20043;-80
2021/08/31 07:15:49;;;;;;;63.25;35.55;;;;;;;24.60;54.94;99476.19;5136705;27;20605;-81
2021/08/31 07:18:15;;;;;;;40.65;25.10;;;;;;;26.53;50.12;99472.09;5136116;27;20118;-82
2021/08/31 07:20:41;;;;;;;45.10;27.00;;;;;;;27.60;46.32;99481.41;5084301;27;20045;-81
2021/08/31 07:23:07;;;;;;;50.28;28.80;;;;;;;27.99;45.45;99472.78;5135395;27;20039;-85
2021/08/31 07:25:33;;;;;;;53.67;29.45;;;;;;;28.47;43.92;99471.63;5101917;27;20054;-85
2021/08/31 07:27:59;;;;;;;50.03;27.73;;;;;;;28.64;43.07;99470.88;5117602;27;20476;-81
2021/08/31 07:30:25;;;;;;;56.08;27.15;;;;;;;29.14;42.15;99466.63;5135131;27;20055;-81
2021/08/31 07:32:50;;;;;;;66.00;37.85;;;;;;;29.76;40.92;99456.72;5116984;27;20047;-80
2021/08/31 07:35:16;;;;;;;45.95;27.02;;;;;;;29.67;40.44;99453.59;5099592;27;20068;-78
2021/08/31 07:37:42;;;;;;;43.88;27.65;;;;;;;29.66;40.24;99452.78;5136116;27;20134;-84
2021/08/31 07:40:08;;;;;;;48.42;27.58;;;;;;;29.65;40.17;99453.03;5094493;28;20042;-84
2021/08/31 07:42:34;;;;;;;43.53;26.55;;;;;;;29.80;39.92;99442.34;5096931;28;20052;-83
2021/08/31 07:45:04;;;;;;;48.08;29.48;;;;;;;29.94;38.80;99442.00;5096405;28;20092;-81
2021/08/31 07:47:31;;;;;;;44.83;28.00;;;;;;;30.52;37.95;99436.16;5114913;28;20047;-78
2021/08/31 07:49:58;;;;;;;46.55;27.38;;;;;;;30.49;37.46;99435.63;5114364;28;20047;-80
2021/08/31 07:52:24;;;;;;;46.38;27.27;;;;;;;30.68;37.31;99428.97;5062855;28;20063;-80
2021/08/31 07:54:50;;;;;;;44.40;27.60;;;;;;;30.59;36.69;99425.88;5114669;28;20408;-80
2021/08/31 07:57:16;;;;;;;42.93;28.83;;;;;;;30.85;36.96;99426.16;5114257;28;20052;-80
2021/08/31 07:59:42;;;;;;;46.17;30.13;;;;;;;30.72;36.94;99430.94;5113475;28;20520;-80
2021/08/31 08:02:08;;;;;;;56.43;31.53;;;;;;;30.59;37.39;99420.41;5112196;28;20450;-80
2021/08/31 08:04:33;;;;;;;47.97;29.97;;;;;;;31.44;35.98;99426.09;5114846;27;20100;-80
2021/08/31 08:06:59;;;;;;;49.80;30.20;;;;;;;31.87;34.88;99417.09;5079234;28;20047;-80
2021/08/31 08:09:25;;;;;;;46.70;28.77;;;;;;;31.88;34.04;99413.25;5097630;27;20076;-79
2021/08/31 08:11:51;;;;;;;53.50;31.27;;;;;;;31.82;35.16;99412.41;5134824;27;20509;-86
2021/08/31 08:14:16;;;;;;;53.27;27.97;;;;;;;32.89;33.82;99410.31;5099441;27;20046;-87
2021/08/31 08:16:42;;;;;;;47.40;29.20;;;;;;;32.82;33.13;99426.19;5116240;27;20412;-79
2021/08/31 08:19:08;;;;;;;53.50;29.37;;;;;;;32.98;32.88;99419.59;5133122;27;20751;-83
2021/08/31 08:21:35;;;;;;;64.33;29.03;;;;;;;33.12;33.12;99408.09;5116942;27;20134;-86
2021/08/31 08:24:01;;;;;;;53.85;30.98;;;;;;;33.38;32.20;99417.16;5114706;27;20505;-78
2021/08/31 08:26:27;;;;;;;51.88;30.33;;;;;;;33.45;32.01;99403.16;5133758;27;20080;-80
2021/08/31 08:28:53;;;;;;;58.00;29.30;;;;;;;33.15;32.14;99404.78;5134514;27;20071;-80
2021/08/31 08:31:19;;;;;;;46.70;27.83;;;;;;;32.81;32.73;99397.13;5132016;27;20427;-81
2021/08/31 08:33:44;;;;;;;46.03;29.27;;;;;;;32.37;33.09;99407.44;5133523;27;20035;-78
2021/08/31 08:36:10;;;;;;;56.40;29.53;;;;;;;32.23;33.34;99409.06;5081619;27;20043;-79
2021/08/31 08:38:36;;;;;;;53.77;30.57;;;;;;;31.94;33.68;99407.53;5132713;27;20054;-86
2021/08/31 08:41:05;;;;;;;62.63;27.40;;;;;;;32.34;33.64;99396.19;5132475;27;20070;-80
2021/08/31 08:43:32;;;;;;;48.13;29.35;;;;;;;31.13;34.84;99411.41;5133893;27;20050;-77
2021/08/31 08:46:01;;;;;;;53.47;29.17;;;;;;;31.05;35.36;99393.53;5134441;27;20047;-81
2021/08/31 08:48:27;;;;;;;49.60;28.17;;;;;;;31.49;34.55;99388.94;5134130;27;20075;-84
2021/08/31 08:50:55;;;;;;;48.40;27.87;;;;;;;31.71;34.29;99384.16;5115549;27;20223;-79
2021/08/31 08:53:22;;;;;;;52.50;29.90;;;;;;;30.88;35.89;99390.94;5132974;27;20045;-79
2021/08/31 08:55:48;;;;;;;51.00;31.58;;;;;;;31.29;35.14;99384.97;5132828;27;20047;-83
2021/08/31 08:58:15;;;;;;;56.22;29.38;;;;;;;31.73;34.63;99379.28;5097936;27;20047;-83
2021/08/31 09:01:08;;;;;;;49.85;30.65;;;;;;;31.70;34.90;99389.91;5115935;27;20411;-79
2021/08/31 09:03:36;;;;;;;53.70;29.02;;;;;;;31.76;34.34;99377.91;5135484;27;20047;-84
2021/08/31 09:06:10;;;;;;;50.17;28.90;;;;;;;31.67;34.43;99374.84;5098884;27;20039;-80
2021/08/31 09:08:40;;;;;;;53.90;29.17;;;;;;;31.57;34.70;99374.78;5135058;27;20111;-81
2021/08/31 09:11:16;;;;;;;64.20;30.02;;;;;;;32.12;34.17;99374.50;5114145;27;20490;-86
2021/08/31 09:13:48;;;;;;;53.47;29.25;;;;;;;32.59;33.40;99377.09;5133094;27;20035;-80
2021/08/31 09:16:26;;;;;;;46.22;29.83;;;;;;;32.68;32.96;99368.34;5132661;27;20084;-83
2021/08/31 09:18:53;;;;;;;51.30;28.55;;;;;;;32.43;33.41;99361.75;5132637;27;20114;-80
2021/08/31 09:21:27;;;;;;;45.05;27.30;;;;;;;33.11;32.47;99359.88;5115535;27;20118;-78
2021/08/31 09:23:56;;;;;;;50.13;27.80;;;;;;;33.14;32.22;99362.06;5133055;27;20075;-80
2021/08/31 09:26:44;;;;;;;56.97;28.98;;;;;;;32.93;32.64;99373.03;5114363;27;20122;-78
2021/08/31 09:29:20;;;;;;;45.38;28.27;;;;;;;32.94;32.58;99373.84;5132960;27;20043;-80
2021/08/31 09:31:54;;;;;;;45.25;27.50;;;;;;;32.35;33.27;99363.09;5115565;27;20534;-79
2021/08/31 09:34:41;;;;;;;45.10;27.33;;;;;;;32.50;33.42;99358.72;5133377;27;20046;-79
2021/08/31 09:37:28;;;;;;;46.08;26.45;;;;;;;33.06;32.67;99355.19;5132106;27;20050;-82
2021/08/31 09:40:06;;;;;;;46.95;26.30;;;;;;;32.90;32.39;99359.91;5133338;27;20381;-81
2021/08/31 09:42:32;;;;;;;43.83;25.08;;;;;;;32.94;32.07;99358.25;5132109;27;20038;-80
2021/08/31 09:45:07;;;;;;;47.80;25.25;;;;;;;32.65;31.87;99345.06;5132702;27;20545;-79
2021/08/31 09:47:36;;;;;;;45.95;25.65;;;;;;;32.67;31.71;99347.53;5132945;27;20047;-81
2021/08/31 09:50:06;;;;;;;41.55;24.13;;;;;;;32.11;32.19;99354.50;5131768;27;20031;-79
2021/08/31 09:52:32;;;;;;;44.63;25.67;;;;;;;31.75;33.40;99359.84;5133243;27;20184;-80
2021/08/31 09:54:58;;;;;;;41.07;24.57;;;;;;;31.20;33.73;99353.78;5131523;27;20513;-81
2021/08/31 09:57:31;;;;;;;50.23;23.87;;;;;;;31.65;33.68;99355.16;5131702;27;20050;-84
2021/08/31 10:00:00;;;;;;;46.58;23.77;;;;;;;31.81;33.54;99336.91;5100690;28;20285;-80
2021/08/31 10:02:28;;;;;;;40.42;24.58;;;;;;;31.73;33.89;99346.44;5106863;28;20050;-80
2021/08/31 10:04:55;;;;;;;42.88;24.38;;;;;;;31.57;33.91;99347.44;5113172;28;20088;-85
2021/08/31 10:07:22;;;;;;;43.17;24.02;;;;;;;31.84;33.54;99341.00;5112931;28;20053;-80
2021/08/31 10:09:48;;;;;;;52.75;25.50;;;;;;;31.75;33.96;99343.44;5105290;28;20527;-79
2021/08/31 10:12:18;;;;;;;53.65;25.70;;;;;;;31.88;33.41;99337.47;5115824;28;20053;-79
2021/08/31 10:14:44;;;;;;;49.13;24.65;;;;;;;31.52;34.79;99333.75;5132558;28;20045;-78
2021/08/31 10:17:13;;;;;;;41.63;23.83;;;;;;;32.17;33.71;99344.41;5133608;28;20049;-83
2021/08/31 10:19:41;;;;;;;40.80;24.15;;;;;;;31.64;34.24;99344.50;5115752;28;20533;-81
2021/08/31 10:22:10;;;;;;;45.60;22.38;;;;;;;31.20;34.39;99345.59;5115328;28;20035;-81
2021/08/31 10:24:36;;;;;;;47.53;22.85;;;;;;;31.17;34.34;99337.91;5115671;28;20039;-82
2021/08/31 10:27:38;;;;;;;47.90;24.03;;;;;;;30.59;35.80;99341.25;5135425;27;20082;-79
2021/08/31 10:30:16;;;;;;;40.15;22.13;;;;;;;30.40;36.14;99347.06;5049738;28;20146;-77
2021/08/31 10:32:43;;;;;;;38.63;21.17;;;;;;;29.99;36.17;99338.44;5034566;28;20182;-78
2021/08/31 10:35:10;;;;;;;43.88;21.65;;;;;;;30.11;36.59;99336.38;5034711;28;20128;-79
2021/08/31 10:37:46;;;;;;;55.83;32.75;;;;;;;30.24;35.64;99337.06;5015776;28;20080;-80
2021/08/31 10:40:35;;;;;;;42.13;22.40;;;;;;;30.20;36.23;99333.22;5015042;28;20075;-81
2021/08/31 10:43:06;;;;;;;42.17;22.58;;;;;;;30.14;36.54;99327.69;5050454;28;20041;-83
2021/08/31 10:45:40;;;;;;;33.10;20.42;;;;;;;29.82;36.37;99333.00;5033649;28;20048;-83
2021/08/31 10:48:22;;;;;;;35.00;19.13;;;;;;;29.60;37.14;99322.13;5019606;28;20417;-79
2021/08/31 10:51:14;;;;;;;38.30;20.10;;;;;;;29.65;37.12;99319.47;5038472;28;20063;-80
2021/08/31 10:53:47;;;;;;;31.88;19.23;;;;;;;29.42;37.68;99320.53;5054558;28;20098;-83
2021/08/31 10:59:11;;;;;;;30.85;17.92;;;;;;;28.63;38.22;99325.00;5053244;28;20458;-77
2021/08/31 11:01:39;;;;;;;33.80;19.00;;;;;;;28.77;38.42;99317.34;5021053;28;20080;-79
2021/08/31 11:04:30;;;;;;;33.20;18.52;;;;;;;28.60;38.64;99320.88;5086336;28;20058;-82
2021/08/31 11:07:02;;;;;;;39.47;19.38;;;;;;;28.70;39.43;99307.44;5098513;28;20050;-80
2021/08/31 11:09:29;;;;;;;36.30;19.65;;;;;;;28.82;39.15;99314.72;5126188;27;20043;-81
2021/08/31 11:12:01;;;;;;;30.60;17.85;;;;;;;28.67;39.61;99320.69;5136331;27;20441;-78
2021/08/31 11:14:46;;;;;;;30.20;18.58;;;;;;;28.41;40.29;99317.53;5134669;27;20100;-83
2021/08/31 11:17:31;;;;;;;33.53;18.75;;;;;;;28.51;40.22;99306.84;5135851;27;20387;-78
2021/08/31 11:20:14;;;;;;;31.80;17.80;;;;;;;28.52;39.49;99316.63;5134857;27;20067;-81
2021/08/31 11:22:40;;;;;;;31.02;18.05;;;;;;;28.62;38.81;99302.38;5136492;27;20039;-78